createdAt,value
2023-04-19T00:00:22.018Z,48.80
2023-04-19T00:02:52.758Z,48.70
2023-04-19T00:05:23.268Z,48.60
2023-04-19T00:07:53.628Z,48.50
2023-04-19T00:10:23.640Z,48.50
2023-04-19T00:12:51.851Z,48.50
2023-04-19T00:15:21.210Z,48.40
2023-04-19T00:17:51.450Z,48.50
2023-04-19T00:20:21.814Z,48.50
2023-04-19T00:22:52.336Z,48.40
2023-04-19T00:25:21.380Z,48.30
2023-04-19T00:27:49.989Z,48.30
2023-04-19T00:30:18.313Z,48.20
2023-04-19T00:32:48.374Z,48.20
2023-04-19T00:35:20.982Z,48.10
2023-04-19T00:37:50.537Z,48.20
2023-04-19T00:40:19.473Z,48.20
2023-04-19T00:42:49.756Z,48.10
2023-04-19T00:45:19.656Z,48.20
2023-04-19T00:47:49.832Z,48.70
2023-04-19T00:50:20.864Z,48.10
2023-04-19T00:52:50.527Z,48.10
2023-04-19T00:55:19.380Z,48.10
2023-04-19T00:57:49.821Z,48.00
2023-04-19T01:00:19.239Z,48.00
2023-04-19T01:02:48.261Z,47.90
2023-04-19T01:05:20.505Z,47.90
2023-04-19T01:07:50.887Z,47.90
2023-04-19T01:10:20.738Z,48.00
2023-04-19T01:12:51.204Z,47.80
2023-04-19T01:15:19.425Z,47.80
2023-04-19T01:17:50.912Z,47.90
2023-04-19T01:20:19.582Z,47.90
2023-04-19T01:22:47.887Z,47.90
2023-04-19T01:25:18.294Z,47.80
2023-04-19T01:27:48.616Z,47.80
2023-04-19T01:30:18.483Z,47.80
2023-04-19T01:32:48.833Z,47.80
2023-04-19T01:35:19.113Z,47.90
2023-04-19T01:37:48.858Z,47.70
2023-04-19T01:40:18.732Z,47.60
2023-04-19T01:42:48.691Z,47.70
2023-04-19T01:45:19.054Z,47.80
2023-04-19T01:47:51.600Z,47.80
2023-04-19T01:50:20.590Z,47.70
2023-04-19T01:52:50.478Z,47.60
2023-04-19T01:55:20.501Z,47.60
2023-04-19T01:57:49.648Z,47.70
2023-04-19T02:00:19.737Z,47.70
2023-04-19T02:02:49.991Z,47.60
2023-04-19T02:05:19.405Z,47.60
2023-04-19T02:07:49.254Z,47.60
2023-04-19T02:10:19.603Z,47.60
2023-04-19T02:12:49.540Z,47.60
2023-04-19T02:15:19.425Z,47.60
2023-04-19T02:17:49.066Z,47.60
2023-04-19T02:20:17.378Z,47.60
2023-04-19T02:22:45.633Z,47.70
2023-04-19T02:25:15.565Z,47.60
2023-04-19T02:27:47.402Z,47.60
2023-04-19T02:30:19.121Z,47.60
2023-04-19T02:32:49.579Z,47.70
2023-04-19T02:35:19.504Z,47.60
2023-04-19T02:37:48.987Z,47.60
2023-04-19T02:40:19.550Z,47.60
2023-04-19T02:42:49.885Z,47.50
2023-04-19T02:45:19.724Z,47.60
2023-04-19T02:47:49.784Z,47.60
2023-04-19T02:50:19.203Z,47.60
2023-04-19T02:52:50.625Z,47.50
2023-04-19T02:55:22.199Z,47.50
2023-04-19T02:58:01.281Z,47.50
2023-04-19T03:00:31.431Z,47.60
2023-04-19T03:03:07.678Z,47.50
2023-04-19T03:05:36.139Z,47.50
2023-04-19T03:08:06.567Z,47.50
2023-04-19T03:10:36.048Z,47.60
2023-04-19T03:13:05.990Z,47.60
2023-04-19T03:15:36.319Z,47.40
2023-04-19T03:18:07.035Z,47.40
2023-04-19T03:20:38.784Z,47.40
2023-04-19T03:23:09.092Z,47.30
2023-04-19T03:25:40.551Z,47.40
2023-04-19T03:28:26.199Z,47.30
2023-04-19T03:31:13.036Z,47.30
2023-04-19T03:33:43.122Z,47.40
2023-04-19T03:36:14.565Z,47.30
2023-04-19T03:38:27.092Z,49.80
2023-04-19T03:38:45.126Z,47.70
2023-04-19T03:41:18.606Z,47.60
2023-04-19T03:43:43.767Z,50.60
2023-04-19T03:43:54.798Z,47.70
2023-04-19T03:46:25.776Z,47.80
2023-04-19T03:48:56.004Z,47.80
2023-04-19T03:48:58.822Z,50.40
2023-04-19T03:51:25.841Z,47.80
2023-04-19T03:53:55.697Z,48.00
2023-04-19T03:54:14.793Z,49.70
2023-04-19T03:56:25.905Z,48.20
2023-04-19T03:58:55.873Z,48.20
2023-04-19T03:59:30.058Z,49.10
2023-04-19T04:01:25.870Z,48.10
2023-04-19T04:03:57.346Z,48.20
2023-04-19T04:04:46.002Z,48.50
2023-04-19T04:06:27.391Z,48.30
2023-04-19T04:08:57.857Z,48.40
2023-04-19T04:10:02.759Z,48.20
2023-04-19T04:11:26.889Z,48.60
2023-04-19T04:13:57.234Z,48.40
2023-04-19T04:15:23.707Z,47.80
2023-04-19T04:16:29.995Z,48.20
2023-04-19T04:18:59.876Z,48.40
2023-04-19T04:20:40.723Z,47.50
2023-04-19T04:21:31.978Z,48.40
2023-04-19T04:24:03.849Z,48.40
2023-04-19T04:25:55.493Z,47.40
2023-04-19T04:26:58.603Z,48.20
2023-04-19T04:29:30.407Z,47.20
2023-04-19T04:31:39.756Z,47.10
2023-04-19T04:32:02.038Z,47.40
2023-04-19T04:34:37.808Z,47.70
2023-04-19T04:36:58.072Z,46.80
2023-04-19T04:37:12.285Z,47.80
2023-04-19T04:39:42.180Z,47.60
2023-04-19T04:42:12.145Z,47.60
2023-04-19T04:42:13.753Z,46.60
2023-04-19T04:44:42.226Z,47.60
2023-04-19T04:47:12.240Z,47.50
2023-04-19T04:47:29.871Z,46.50
2023-04-19T04:49:48.136Z,47.60
2023-04-19T04:52:17.934Z,47.50
2023-04-19T04:52:46.709Z,46.30
2023-04-19T04:54:58.932Z,47.40
2023-04-19T04:57:32.713Z,47.40
2023-04-19T04:58:09.743Z,46.20
2023-04-19T05:00:03.648Z,47.40
2023-04-19T05:02:41.647Z,47.30
2023-04-19T05:03:36.810Z,46.00
2023-04-19T05:05:11.084Z,47.10
2023-04-19T05:07:41.092Z,47.20
2023-04-19T05:08:57.113Z,45.80
2023-04-19T05:10:09.891Z,47.10
2023-04-19T05:12:45.806Z,47.10
2023-04-19T05:14:16.251Z,45.70
2023-04-19T05:15:16.513Z,47.10
2023-04-19T05:17:51.456Z,47.00
2023-04-19T05:19:33.739Z,45.50
2023-04-19T05:20:21.926Z,47.00
2023-04-19T05:22:59.710Z,46.80
2023-04-19T05:24:49.855Z,45.40
2023-04-19T05:25:28.456Z,46.70
2023-04-19T05:27:58.001Z,46.70
2023-04-19T05:30:04.786Z,45.30
2023-04-19T05:30:30.241Z,46.70
2023-04-19T05:32:58.471Z,46.60
2023-04-19T05:35:23.784Z,45.30
2023-04-19T05:35:27.373Z,46.50
2023-04-19T05:37:56.870Z,46.40
2023-04-19T05:40:26.810Z,46.50
2023-04-19T05:40:38.835Z,45.20
2023-04-19T05:42:59.651Z,46.10
2023-04-19T05:45:32.753Z,46.00
2023-04-19T05:45:54.812Z,45.10
2023-04-19T05:48:03.172Z,46.30
2023-04-19T05:50:59.272Z,46.30
2023-04-19T05:51:10.773Z,45.00
2023-04-19T05:53:47.839Z,46.20
2023-04-19T05:56:16.940Z,46.00
2023-04-19T05:56:44.787Z,44.70
2023-04-19T05:58:46.642Z,45.90
2023-04-19T06:01:15.062Z,45.80
2023-04-19T06:02:00.183Z,44.50
2023-04-19T06:03:44.914Z,45.70
2023-04-19T06:06:15.053Z,45.80
2023-04-19T06:07:27.421Z,44.30
2023-04-19T06:08:45.890Z,45.70
2023-04-19T06:11:26.575Z,45.50
2023-04-19T06:12:46.775Z,44.10
2023-04-19T06:14:01.694Z,45.50
2023-04-19T06:16:30.327Z,45.20
2023-04-19T06:18:02.692Z,43.80
2023-04-19T06:18:59.943Z,45.30
2023-04-19T06:21:29.432Z,45.10
2023-04-19T06:23:17.751Z,43.40
2023-04-19T06:23:59.892Z,45.00
2023-04-19T06:26:30.245Z,45.00
2023-04-19T06:28:33.100Z,43.20
2023-04-19T06:29:00.109Z,44.90
2023-04-19T06:31:30.570Z,44.80
2023-04-19T06:33:48.527Z,43.00
2023-04-19T06:34:00.299Z,44.50
2023-04-19T06:36:29.208Z,44.40
2023-04-19T06:38:58.543Z,44.40
2023-04-19T06:39:03.495Z,42.70
2023-04-19T06:41:28.611Z,44.10
2023-04-19T06:43:57.419Z,44.10
2023-04-19T06:44:18.784Z,42.70
2023-04-19T06:46:27.972Z,44.70
2023-04-19T06:49:03.562Z,43.90
2023-04-19T06:49:33.514Z,41.90
2023-04-19T06:51:33.790Z,43.80
2023-04-19T06:54:04.048Z,43.60
2023-04-19T06:54:48.777Z,41.80
2023-04-19T06:56:33.918Z,43.50
2023-04-19T06:59:03.022Z,43.50
2023-04-19T07:00:03.737Z,41.50
2023-04-19T07:01:31.436Z,43.20
2023-04-19T07:04:01.993Z,43.30
2023-04-19T07:05:18.818Z,41.10
2023-04-19T07:06:31.806Z,42.90
2023-04-19T07:09:02.182Z,42.90
2023-04-19T07:10:33.579Z,40.80
2023-04-19T07:11:32.460Z,42.80
2023-04-19T07:14:01.847Z,43.00
2023-04-19T07:15:48.530Z,40.50
2023-04-19T07:16:31.295Z,41.80
2023-04-19T07:19:01.724Z,42.40
2023-04-19T07:21:03.727Z,40.00
2023-04-19T07:21:32.002Z,42.20
2023-04-19T07:24:01.600Z,42.20
2023-04-19T07:26:18.825Z,39.80
2023-04-19T07:26:30.351Z,42.00
2023-04-19T07:29:00.632Z,41.90
2023-04-19T07:31:30.641Z,41.50
2023-04-19T07:31:33.738Z,39.60
2023-04-19T07:33:59.445Z,41.20
2023-04-19T07:36:29.908Z,41.10
2023-04-19T07:36:49.139Z,39.30
2023-04-19T07:39:00.239Z,40.90
2023-04-19T07:41:29.749Z,40.50
2023-04-19T07:42:05.264Z,39.40
2023-04-19T07:43:58.478Z,40.50
2023-04-19T07:46:27.908Z,40.30
2023-04-19T07:47:20.832Z,39.20
2023-04-19T07:48:57.824Z,40.30
2023-04-19T07:51:26.779Z,40.10
2023-04-19T07:52:36.103Z,39.30
2023-04-19T07:53:57.167Z,39.20
2023-04-19T07:56:27.170Z,39.30
2023-04-19T07:57:51.795Z,38.90
2023-04-19T07:59:06.832Z,38.90
2023-04-19T08:01:37.260Z,38.90
2023-04-19T08:03:07.104Z,38.80
2023-04-19T08:04:06.567Z,38.90
2023-04-19T08:06:37.030Z,38.60
2023-04-19T08:08:22.897Z,38.90
2023-04-19T08:09:07.330Z,38.20
2023-04-19T08:11:37.599Z,38.00
2023-04-19T08:13:38.705Z,38.70
2023-04-19T08:14:18.513Z,37.90
2023-04-19T08:17:22.386Z,37.50
2023-04-19T08:18:54.567Z,38.60
2023-04-19T08:19:44.516Z,37.00
2023-04-19T08:22:14.894Z,36.50
2023-04-19T08:24:09.738Z,38.30
2023-04-19T08:24:44.977Z,36.20
2023-04-19T08:27:13.406Z,34.60
2023-04-19T08:29:24.757Z,38.40
2023-04-19T08:29:41.638Z,33.10
2023-04-19T08:32:11.149Z,31.20
2023-04-19T08:34:39.520Z,38.30
2023-04-19T08:34:40.567Z,29.80
2023-04-19T08:37:10.216Z,28.50
2023-04-19T08:39:38.724Z,28.00
2023-04-19T08:39:54.839Z,38.50
2023-04-19T08:42:13.454Z,27.30
2023-04-19T08:45:17.074Z,26.60
2023-04-19T08:45:27.156Z,39.00
2023-04-19T08:47:56.409Z,26.20
2023-04-19T08:50:56.423Z,38.80
2023-04-19T08:53:12.255Z,25.20
2023-04-19T08:56:31.987Z,38.20
2023-04-19T08:58:57.066Z,24.40
2023-04-19T09:01:50.787Z,38.30
2023-04-19T09:04:07.398Z,24.00
2023-04-19T09:06:45.573Z,23.80
2023-04-19T09:07:05.880Z,38.40
2023-04-19T09:09:28.809Z,23.60
2023-04-19T09:12:03.831Z,23.50
2023-04-19T09:12:20.849Z,38.20
2023-04-19T09:14:33.334Z,23.40
2023-04-19T09:17:03.689Z,23.30
2023-04-19T09:17:35.786Z,38.00
2023-04-19T09:19:33.633Z,23.20
2023-04-19T09:22:03.717Z,23.10
2023-04-19T09:22:50.814Z,38.30
2023-04-19T09:24:49.690Z,22.90
2023-04-19T09:27:20.527Z,22.90
2023-04-19T09:28:05.563Z,38.00
2023-04-19T09:29:50.818Z,22.80
2023-04-19T09:32:21.275Z,22.80
2023-04-19T09:33:20.985Z,38.00
2023-04-19T09:34:51.679Z,22.50
2023-04-19T09:37:38.979Z,22.60
2023-04-19T09:38:36.795Z,37.90
2023-04-19T09:40:10.598Z,22.60
2023-04-19T09:44:07.430Z,38.30
2023-04-19T09:47:59.346Z,22.20
2023-04-19T09:49:37.719Z,37.80
2023-04-19T09:50:28.762Z,22.20
2023-04-19T09:52:57.153Z,22.00
2023-04-19T09:55:03.171Z,37.60
2023-04-19T09:55:29.046Z,22.00
2023-04-19T09:58:00.716Z,21.90
2023-04-19T10:00:21.825Z,37.30
2023-04-19T10:00:35.993Z,22.00
2023-04-19T10:03:12.000Z,21.90
2023-04-19T10:05:36.967Z,36.80
2023-04-19T10:05:41.595Z,21.80
2023-04-19T10:08:11.837Z,21.80
2023-04-19T10:10:41.890Z,21.90
2023-04-19T10:10:52.820Z,37.60
2023-04-19T10:16:11.603Z,21.80
2023-04-19T10:16:18.060Z,36.90
2023-04-19T10:18:45.390Z,21.70
2023-04-19T10:21:15.442Z,21.10
2023-04-19T10:21:33.781Z,37.30
2023-04-19T10:23:44.179Z,21.30
2023-04-19T10:26:17.032Z,21.50
2023-04-19T10:26:48.769Z,36.70
2023-04-19T10:28:46.973Z,21.50
2023-04-19T10:31:16.214Z,21.50
2023-04-19T10:32:04.141Z,37.10
2023-04-19T10:33:46.577Z,21.60
2023-04-19T10:36:15.877Z,21.80
2023-04-19T10:37:20.072Z,37.20
2023-04-19T10:38:45.941Z,21.70
2023-04-19T10:41:17.143Z,21.90
2023-04-19T10:42:36.195Z,37.70
2023-04-19T10:43:47.222Z,21.90
2023-04-19T10:46:15.927Z,22.00
2023-04-19T10:47:51.854Z,38.20
2023-04-19T10:48:46.318Z,22.10
2023-04-19T10:51:16.874Z,22.10
2023-04-19T10:53:06.795Z,38.40
2023-04-19T10:53:45.869Z,22.20
2023-04-19T10:56:14.400Z,22.20
2023-04-19T10:58:21.630Z,38.00
2023-04-19T10:58:43.075Z,22.30
2023-04-19T11:01:13.381Z,22.30
2023-04-19T11:03:36.902Z,37.70
2023-04-19T11:03:43.497Z,22.40
2023-04-19T11:06:13.372Z,22.30
2023-04-19T11:08:42.914Z,21.90
2023-04-19T11:08:51.858Z,37.50
2023-04-19T11:11:13.652Z,22.10
2023-04-19T11:13:43.341Z,22.00
2023-04-19T11:14:07.051Z,36.90
2023-04-19T11:16:13.782Z,22.00
2023-04-19T11:18:44.135Z,21.90
2023-04-19T11:19:22.807Z,37.50
2023-04-19T11:21:14.589Z,21.80
2023-04-19T11:23:44.112Z,21.80
2023-04-19T11:24:37.868Z,37.20
2023-04-19T11:26:14.399Z,22.00
2023-04-19T11:28:45.384Z,22.20
2023-04-19T11:29:52.776Z,36.80
2023-04-19T11:31:14.585Z,22.30
2023-04-19T11:33:43.811Z,22.20
2023-04-19T11:35:07.801Z,37.10
2023-04-19T11:36:12.497Z,22.00
2023-04-19T11:38:42.801Z,21.80
2023-04-19T11:40:23.928Z,37.10
2023-04-19T11:41:13.061Z,21.80
2023-04-19T11:43:43.414Z,21.90
2023-04-19T11:45:40.083Z,37.60
2023-04-19T11:46:13.489Z,21.50
2023-04-19T11:48:42.300Z,20.70
2023-04-19T11:50:55.840Z,38.30
2023-04-19T11:51:12.236Z,19.80
2023-04-19T11:53:41.164Z,19.00
2023-04-19T11:56:10.613Z,19.10
2023-04-19T11:56:10.770Z,38.10
2023-04-19T11:58:39.751Z,17.60
2023-04-19T12:01:08.500Z,17.10
2023-04-19T12:01:25.790Z,37.90
2023-04-19T12:03:38.881Z,17.30
2023-04-19T12:06:09.527Z,17.00
2023-04-19T12:06:40.947Z,38.00
2023-04-19T12:08:39.023Z,16.90
2023-04-19T12:11:08.793Z,16.60
2023-04-19T12:11:55.802Z,37.80
2023-04-19T12:13:37.177Z,16.70
2023-04-19T12:16:06.604Z,16.50
2023-04-19T12:17:10.868Z,37.90
2023-04-19T12:18:37.102Z,16.30
2023-04-19T12:21:06.813Z,16.70
2023-04-19T12:22:25.811Z,37.80
2023-04-19T12:23:40.268Z,16.70
2023-04-19T12:26:10.177Z,17.00
2023-04-19T12:27:40.626Z,37.40
2023-04-19T12:28:39.576Z,17.60
2023-04-19T12:31:10.049Z,17.90
2023-04-19T12:32:55.608Z,36.40
2023-04-19T12:33:39.663Z,18.20
2023-04-19T12:36:08.443Z,17.70
2023-04-19T12:38:10.971Z,36.10
2023-04-19T12:38:39.369Z,17.80
2023-04-19T12:41:09.820Z,17.80
2023-04-19T12:43:25.596Z,36.10
2023-04-19T12:43:38.583Z,18.20
2023-04-19T12:46:07.331Z,18.00
2023-04-19T12:48:35.773Z,17.90
2023-04-19T12:48:40.791Z,35.40
2023-04-19T12:51:04.053Z,18.20
2023-04-19T12:53:33.388Z,18.90
2023-04-19T12:53:55.799Z,35.10
2023-04-19T12:56:03.729Z,19.40
2023-04-19T12:58:33.674Z,20.00
2023-04-19T12:59:10.775Z,34.70
2023-04-19T13:01:03.109Z,20.60
2023-04-19T13:03:33.493Z,21.20
2023-04-19T13:04:25.912Z,34.80
2023-04-19T13:06:03.560Z,21.70
2023-04-19T13:08:43.432Z,22.50
2023-04-19T13:09:41.855Z,34.90
2023-04-19T13:11:15.196Z,23.00
2023-04-19T13:13:45.514Z,23.20
2023-04-19T13:14:56.795Z,34.60
2023-04-19T13:16:15.120Z,23.50
2023-04-19T13:18:45.276Z,23.80
2023-04-19T13:20:11.740Z,34.20
2023-04-19T13:21:15.878Z,23.90
2023-04-19T13:23:51.243Z,23.70
2023-04-19T13:25:26.816Z,33.90
2023-04-19T13:26:23.475Z,23.50
2023-04-19T13:28:52.269Z,22.60
2023-04-19T13:30:41.798Z,33.70
2023-04-19T13:31:22.625Z,22.30
2023-04-19T13:33:52.558Z,22.60
2023-04-19T13:35:56.562Z,33.70
2023-04-19T13:36:21.970Z,21.70
2023-04-19T13:38:52.349Z,21.50
2023-04-19T13:41:11.602Z,33.70
2023-04-19T13:41:22.244Z,21.50
2023-04-19T13:43:51.738Z,21.30
2023-04-19T13:46:21.050Z,21.20
2023-04-19T13:48:51.396Z,21.20
2023-04-19T13:51:21.720Z,20.80
2023-04-19T13:53:54.031Z,21.00
2023-04-19T13:56:23.904Z,20.90
2023-04-19T13:58:54.151Z,20.90
2023-04-19T14:01:23.972Z,20.90
2023-04-19T14:03:53.557Z,20.90
2023-04-19T14:06:23.910Z,21.10
2023-04-19T14:08:54.245Z,21.20
2023-04-19T14:11:24.691Z,21.20
2023-04-19T14:13:55.076Z,21.30
2023-04-19T14:16:25.955Z,21.30
2023-04-19T14:18:55.336Z,21.30
2023-04-19T14:21:25.397Z,21.50
2023-04-19T14:23:53.897Z,21.60
2023-04-19T14:26:22.733Z,21.80
2023-04-19T14:28:55.651Z,21.90
2023-04-19T14:31:24.143Z,22.20
2023-04-19T14:33:52.904Z,22.60
2023-04-19T14:36:23.169Z,23.20
2023-04-19T14:38:53.403Z,23.80
2023-04-19T14:41:23.625Z,24.40
2023-04-19T14:43:53.972Z,24.90
2023-04-19T14:46:24.141Z,25.40
2023-04-19T14:48:53.651Z,25.80
2023-04-19T14:51:23.439Z,26.20
2023-04-19T14:53:52.233Z,26.40
2023-04-19T14:56:22.565Z,26.90
2023-04-19T14:58:52.842Z,27.20
2023-04-19T15:01:23.174Z,27.40
2023-04-19T15:03:53.817Z,27.70
2023-04-19T15:06:23.548Z,28.00
2023-04-19T15:08:52.360Z,28.10
2023-04-19T15:11:22.695Z,28.40
2023-04-19T15:13:52.481Z,28.60
2023-04-19T15:16:21.845Z,28.80
2023-04-19T15:18:51.717Z,29.00
2023-04-19T15:21:23.021Z,29.30
2023-04-19T15:23:54.692Z,29.40
2023-04-19T15:26:25.132Z,29.60
2023-04-19T15:28:55.532Z,29.80
2023-04-19T15:31:25.712Z,30.00
2023-04-19T15:33:54.475Z,29.80
2023-04-19T15:36:24.841Z,30.00
2023-04-19T15:38:53.912Z,30.00
2023-04-19T15:41:22.731Z,30.40
2023-04-19T15:43:52.906Z,30.30
2023-04-19T15:46:21.721Z,30.50
2023-04-19T15:48:52.059Z,30.60
2023-04-19T15:51:22.310Z,31.10
2023-04-19T15:53:52.619Z,31.10
2023-04-19T15:56:22.907Z,31.10
2023-04-19T15:58:53.169Z,31.20
2023-04-19T16:01:23.212Z,31.30
2023-04-19T16:03:52.071Z,31.50
2023-04-19T16:06:22.392Z,31.30
2023-04-19T16:08:51.170Z,31.30
2023-04-19T16:11:21.451Z,31.70
2023-04-19T16:13:51.509Z,31.80
2023-04-19T16:16:19.918Z,31.70
2023-04-19T16:18:48.704Z,31.90
2023-04-19T16:21:18.633Z,32.00
2023-04-19T16:23:48.205Z,32.10
2023-04-19T16:26:18.512Z,32.00
2023-04-19T16:28:48.885Z,32.10
2023-04-19T16:31:17.862Z,32.00
2023-04-19T16:33:48.074Z,31.90
2023-04-19T16:36:16.286Z,31.90
2023-04-19T16:38:46.243Z,32.30
2023-04-19T16:41:14.495Z,32.10
2023-04-19T16:43:43.866Z,32.30
2023-04-19T16:46:13.583Z,32.40
2023-04-19T16:48:42.409Z,32.30
2023-04-19T16:51:12.363Z,32.40
2023-04-19T16:53:41.777Z,32.50
2023-04-19T16:56:12.172Z,32.50
2023-04-19T16:58:41.488Z,32.50
2023-04-19T17:01:11.773Z,32.60
2023-04-19T17:03:41.778Z,32.80
2023-04-19T17:06:11.166Z,32.80
2023-04-19T17:08:41.207Z,33.30
2023-04-19T17:11:09.633Z,32.80
2023-04-19T17:13:38.033Z,32.70
2023-04-19T17:16:06.693Z,32.60
2023-04-19T17:18:36.897Z,32.70
2023-04-19T17:21:06.903Z,32.90
2023-04-19T17:23:35.593Z,32.70
2023-04-19T17:26:05.407Z,32.70
2023-04-19T17:28:34.783Z,32.70
2023-04-19T17:31:05.195Z,33.10
2023-04-19T17:33:35.581Z,33.10
2023-04-19T17:36:05.917Z,33.20
2023-04-19T17:38:36.225Z,33.40
2023-04-19T17:41:05.701Z,33.30
2023-04-19T17:43:34.520Z,33.20
2023-04-19T17:46:03.873Z,33.30
2023-04-19T17:48:34.249Z,33.40
2023-04-19T17:51:03.934Z,33.50
2023-04-19T17:53:33.776Z,33.60
2023-04-19T17:56:06.322Z,33.50
2023-04-19T17:58:35.419Z,33.40
2023-04-19T18:01:04.159Z,33.60
2023-04-19T18:03:34.555Z,33.70
2023-04-19T18:06:04.994Z,33.80
2023-04-19T18:08:35.297Z,33.90
2023-04-19T18:11:05.641Z,33.70
2023-04-19T18:13:35.753Z,34.00
2023-04-19T18:16:08.632Z,34.20
2023-04-19T18:18:39.008Z,34.40
2023-04-19T18:21:09.353Z,34.40
2023-04-19T18:23:38.824Z,34.70
2023-04-19T18:26:07.751Z,34.60
2023-04-19T18:28:36.644Z,35.50
2023-04-19T18:31:05.971Z,34.90
2023-04-19T18:33:35.874Z,35.00
2023-04-19T18:36:05.963Z,35.40
2023-04-19T18:38:33.966Z,35.40
2023-04-19T18:41:02.694Z,35.50
2023-04-19T18:43:32.947Z,35.60
2023-04-19T18:46:02.912Z,35.70
2023-04-19T18:48:32.511Z,35.60
2023-04-19T18:51:02.926Z,35.80
2023-04-19T18:53:33.182Z,35.80
2023-04-19T18:56:03.672Z,35.80
2023-04-19T18:58:31.973Z,35.80
2023-04-19T19:01:01.366Z,36.00
2023-04-19T19:03:58.017Z,36.10
2023-04-19T19:06:20.250Z,36.70
2023-04-19T19:08:49.740Z,36.10
2023-04-19T19:11:47.197Z,36.30
2023-04-19T19:14:07.433Z,36.30
2023-04-19T19:19:08.069Z,36.40
2023-04-19T19:21:37.956Z,36.20
2023-04-19T19:24:07.388Z,36.10
2023-04-19T19:26:37.162Z,36.20
2023-04-19T19:29:06.374Z,36.30
2023-04-19T19:31:35.142Z,36.20
2023-04-19T19:34:23.400Z,36.50
2023-04-19T19:36:54.156Z,36.40
2023-04-19T19:39:23.900Z,36.20
2023-04-19T19:44:23.656Z,36.30
2023-04-19T19:46:54.031Z,36.30
2023-04-19T19:49:24.519Z,36.30
2023-04-19T19:51:59.143Z,36.40
2023-04-19T19:54:29.516Z,36.20
2023-04-19T19:59:51.604Z,36.10
2023-04-19T20:02:24.661Z,36.20
2023-04-19T20:04:55.253Z,36.30
2023-04-19T20:07:42.265Z,36.00
2023-04-19T20:10:12.812Z,36.00
2023-04-19T20:12:42.389Z,36.10
2023-04-19T20:15:11.178Z,36.00
2023-04-19T20:17:41.607Z,36.00
2023-04-19T20:20:11.974Z,36.00
2023-04-19T20:22:42.309Z,36.00
2023-04-19T20:25:12.557Z,36.00
2023-04-19T20:27:42.898Z,35.80
2023-04-19T20:30:15.995Z,35.90
2023-04-19T20:32:46.388Z,36.00
2023-04-19T20:35:16.732Z,35.90
2023-04-19T20:37:47.130Z,36.00
2023-04-19T20:40:16.254Z,36.10
2023-04-19T20:42:45.642Z,36.10
2023-04-19T20:45:15.902Z,36.00
2023-04-19T20:47:46.286Z,36.00
2023-04-19T20:50:16.665Z,35.90
2023-04-19T20:52:46.926Z,35.80
2023-04-19T20:55:16.466Z,35.80
2023-04-19T20:57:45.163Z,35.80
2023-04-19T21:00:15.517Z,35.70
2023-04-19T21:02:44.929Z,35.70
2023-04-19T21:05:15.455Z,35.80
2023-04-19T21:07:45.891Z,36.40
2023-04-19T21:10:15.392Z,35.80
2023-04-19T21:12:45.762Z,35.70
2023-04-19T21:15:16.148Z,35.80
2023-04-19T21:17:46.166Z,35.80
2023-04-19T21:20:14.627Z,35.70
2023-04-19T21:22:43.028Z,35.80
2023-04-19T21:25:12.264Z,35.80
2023-04-19T21:27:41.163Z,35.80
2023-04-19T21:30:11.380Z,35.70
2023-04-19T21:32:41.386Z,35.80
2023-04-19T21:35:10.082Z,35.70
2023-04-19T21:37:40.232Z,35.70
2023-04-19T21:40:08.898Z,35.60
2023-04-19T21:42:39.207Z,35.80
2023-04-19T21:45:09.564Z,35.80
2023-04-19T21:47:39.913Z,35.70
2023-04-19T21:50:10.211Z,35.60
2023-04-19T21:52:40.511Z,35.60
2023-04-19T21:55:10.830Z,35.60
2023-04-19T21:57:41.119Z,35.60
2023-04-19T22:00:11.510Z,35.60
2023-04-19T22:02:41.977Z,35.50
2023-04-19T22:05:12.398Z,35.50
2023-04-19T22:07:42.698Z,35.60
2023-04-19T22:10:13.035Z,35.50
2023-04-19T22:12:57.235Z,35.50
2023-04-19T22:15:26.982Z,35.50
2023-04-19T22:17:56.819Z,35.60
2023-04-19T22:20:25.933Z,35.60
2023-04-19T22:22:54.632Z,35.60
2023-04-19T22:25:25.006Z,35.70
2023-04-19T22:27:55.416Z,35.80
2023-04-19T22:30:26.636Z,35.70
2023-04-19T22:32:57.023Z,35.70
2023-04-19T22:35:27.301Z,35.60
2023-04-19T22:37:57.567Z,35.60
2023-04-19T22:40:27.426Z,35.50
2023-04-19T22:42:56.845Z,35.70
2023-04-19T22:45:27.132Z,35.60
2023-04-19T22:47:57.595Z,35.70
2023-04-19T22:50:26.930Z,35.50
2023-04-19T22:52:57.203Z,35.50
2023-04-19T22:55:27.056Z,35.50
2023-04-19T22:57:56.444Z,35.50
2023-04-19T23:00:26.828Z,35.60
2023-04-19T23:02:56.371Z,35.60
2023-04-19T23:05:25.761Z,35.70
2023-04-19T23:07:54.844Z,35.70
2023-04-19T23:10:23.072Z,35.60
2023-04-19T23:12:51.949Z,35.60
2023-04-19T23:15:20.981Z,35.70
2023-04-19T23:17:49.723Z,35.70
2023-04-19T23:20:19.761Z,35.70
2023-04-19T23:22:49.200Z,35.70
2023-04-19T23:25:19.526Z,35.70
2023-04-19T23:27:49.826Z,35.70
2023-04-19T23:30:20.078Z,35.80
2023-04-19T23:32:50.370Z,35.80
2023-04-19T23:35:20.693Z,35.80
2023-04-19T23:37:50.913Z,35.80
2023-04-19T23:40:21.181Z,35.90
2023-04-19T23:42:50.494Z,35.80
2023-04-19T23:45:19.771Z,35.90
2023-04-19T23:47:50.080Z,35.90
2023-04-19T23:50:20.401Z,36.00
2023-04-19T23:52:50.710Z,36.00
2023-04-19T23:55:20.459Z,36.10
2023-04-19T23:57:49.798Z,36.00
